sensor_id;sensor_type;location;lat;lon;timestamp;P1;durP1;ratioP1;P2;durP2;ratioP2
5129;SDS011;2583;50.946;6.954;2023-04-24T00:01:04;1.10;;;0.60;;
5129;SDS011;2583;50.946;6.954;2023-04-24T00:03:33;1.80;;;0.80;;
5129;SDS011;2583;50.946;6.954;2023-04-24T00:06:01;1.30;;;0.73;;
5129;SDS011;2583;50.946;6.954;2023-04-24T00:08:29;1.43;;;0.73;;
5129;SDS011;2583;50.946;6.954;2023-04-24T00:10:56;1.43;;;0.80;;
5129;SDS011;2583;50.946;6.954;2023-04-24T00:13:23;1.63;;;0.90;;
5129;SDS011;2583;50.946;6.954;2023-04-24T00:15:50;1.87;;;0.70;;
5129;SDS011;2583;50.946;6.954;2023-04-24T00:18:16;1.30;;;0.80;;
5129;SDS011;2583;50.946;6.954;2023-04-24T00:20:43;1.70;;;1.00;;
5129;SDS011;2583;50.946;6.954;2023-04-24T00:23:10;1.50;;;0.77;;
5129;SDS011;2583;50.946;6.954;2023-04-24T00:25:37;1.63;;;0.97;;
5129;SDS011;2583;50.946;6.954;2023-04-24T00:28:04;1.13;;;0.67;;
5129;SDS011;2583;50.946;6.954;2023-04-24T00:30:31;1.57;;;1.00;;
5129;SDS011;2583;50.946;6.954;2023-04-24T00:32:58;1.57;;;0.80;;
5129;SDS011;2583;50.946;6.954;2023-04-24T00:35:25;1.40;;;0.90;;
5129;SDS011;2583;50.946;6.954;2023-04-24T00:37:53;1.20;;;0.80;;
5129;SDS011;2583;50.946;6.954;2023-04-24T00:40:20;1.30;;;0.70;;
5129;SDS011;2583;50.946;6.954;2023-04-24T00:42:46;1.47;;;0.90;;
5129;SDS011;2583;50.946;6.954;2023-04-24T00:45:14;2.60;;;1.17;;
5129;SDS011;2583;50.946;6.954;2023-04-24T00:47:41;1.27;;;1.00;;
5129;SDS011;2583;50.946;6.954;2023-04-24T00:50:08;3.30;;;0.90;;
5129;SDS011;2583;50.946;6.954;2023-04-24T00:52:35;1.73;;;0.93;;
5129;SDS011;2583;50.946;6.954;2023-04-24T00:55:03;1.43;;;0.80;;
5129;SDS011;2583;50.946;6.954;2023-04-24T00:57:30;2.53;;;1.00;;
5129;SDS011;2583;50.946;6.954;2023-04-24T00:59:57;1.13;;;0.80;;
5129;SDS011;2583;50.946;6.954;2023-04-24T01:02:24;1.83;;;0.80;;
5129;SDS011;2583;50.946;6.954;2023-04-24T01:04:51;1.60;;;0.90;;
5129;SDS011;2583;50.946;6.954;2023-04-24T01:07:21;1.20;;;0.90;;
5129;SDS011;2583;50.946;6.954;2023-04-24T01:09:48;1.10;;;0.80;;
5129;SDS011;2583;50.946;6.954;2023-04-24T01:12:18;1.33;;;0.80;;
5129;SDS011;2583;50.946;6.954;2023-04-24T01:14:45;3.80;;;1.00;;
5129;SDS011;2583;50.946;6.954;2023-04-24T01:17:12;1.00;;;0.90;;
5129;SDS011;2583;50.946;6.954;2023-04-24T01:19:39;1.47;;;0.93;;
5129;SDS011;2583;50.946;6.954;2023-04-24T01:22:08;1.30;;;0.93;;
5129;SDS011;2583;50.946;6.954;2023-04-24T01:24:40;2.17;;;0.73;;
5129;SDS011;2583;50.946;6.954;2023-04-24T01:27:09;1.23;;;0.90;;
5129;SDS011;2583;50.946;6.954;2023-04-24T01:29:36;1.77;;;0.70;;
5129;SDS011;2583;50.946;6.954;2023-04-24T01:32:03;2.43;;;0.80;;
5129;SDS011;2583;50.946;6.954;2023-04-24T01:34:31;1.30;;;1.13;;
5129;SDS011;2583;50.946;6.954;2023-04-24T01:36:58;1.30;;;1.20;;
5129;SDS011;2583;50.946;6.954;2023-04-24T01:39:25;2.17;;;2.00;;
5129;SDS011;2583;50.946;6.954;2023-04-24T01:41:54;2.10;;;1.90;;
5129;SDS011;2583;50.946;6.954;2023-04-24T01:44:22;2.60;;;1.97;;
5129;SDS011;2583;50.946;6.954;2023-04-24T01:46:49;2.00;;;1.80;;
5129;SDS011;2583;50.946;6.954;2023-04-24T01:49:17;2.93;;;2.33;;
5129;SDS011;2583;50.946;6.954;2023-04-24T01:51:44;3.40;;;2.30;;
5129;SDS011;2583;50.946;6.954;2023-04-24T01:54:11;2.40;;;2.20;;
5129;SDS011;2583;50.946;6.954;2023-04-24T01:56:41;3.00;;;2.47;;
5129;SDS011;2583;50.946;6.954;2023-04-24T01:59:09;3.80;;;3.30;;
5129;SDS011;2583;50.946;6.954;2023-04-24T02:01:38;2.67;;;2.47;;
5129;SDS011;2583;50.946;6.954;2023-04-24T02:04:06;3.57;;;3.33;;
5129;SDS011;2583;50.946;6.954;2023-04-24T02:06:34;3.87;;;2.93;;
5129;SDS011;2583;50.946;6.954;2023-04-24T02:09:02;4.03;;;2.97;;
5129;SDS011;2583;50.946;6.954;2023-04-24T02:11:29;3.00;;;2.70;;
5129;SDS011;2583;50.946;6.954;2023-04-24T02:13:56;4.37;;;2.80;;
5129;SDS011;2583;50.946;6.954;2023-04-24T02:16:23;4.43;;;3.27;;
5129;SDS011;2583;50.946;6.954;2023-04-24T02:18:51;3.20;;;2.80;;
5129;SDS011;2583;50.946;6.954;2023-04-24T02:21:18;3.50;;;3.20;;
5129;SDS011;2583;50.946;6.954;2023-04-24T02:23:44;4.20;;;3.90;;
5129;SDS011;2583;50.946;6.954;2023-04-24T02:26:11;7.90;;;3.90;;
5129;SDS011;2583;50.946;6.954;2023-04-24T02:28:39;4.17;;;3.03;;
5129;SDS011;2583;50.946;6.954;2023-04-24T02:31:06;4.20;;;3.90;;
5129;SDS011;2583;50.946;6.954;2023-04-24T02:33:33;5.03;;;4.63;;
5129;SDS011;2583;50.946;6.954;2023-04-24T02:35:59;4.37;;;3.97;;
5129;SDS011;2583;50.946;6.954;2023-04-24T02:38:26;4.50;;;4.20;;
5129;SDS011;2583;50.946;6.954;2023-04-24T02:40:53;4.03;;;3.73;;
5129;SDS011;2583;50.946;6.954;2023-04-24T02:43:20;12.87;;;5.17;;
5129;SDS011;2583;50.946;6.954;2023-04-24T02:45:47;4.30;;;3.90;;
5129;SDS011;2583;50.946;6.954;2023-04-24T02:48:15;4.90;;;4.50;;
5129;SDS011;2583;50.946;6.954;2023-04-24T02:50:42;4.13;;;3.83;;
5129;SDS011;2583;50.946;6.954;2023-04-24T02:53:09;5.23;;;3.87;;
5129;SDS011;2583;50.946;6.954;2023-04-24T02:55:36;4.13;;;3.83;;
5129;SDS011;2583;50.946;6.954;2023-04-24T02:58:03;4.50;;;4.20;;
5129;SDS011;2583;50.946;6.954;2023-04-24T03:00:30;4.80;;;4.40;;
5129;SDS011;2583;50.946;6.954;2023-04-24T03:02:56;4.73;;;4.43;;
5129;SDS011;2583;50.946;6.954;2023-04-24T03:05:23;4.90;;;4.57;;
5129;SDS011;2583;50.946;6.954;2023-04-24T03:07:51;5.00;;;4.60;;
5129;SDS011;2583;50.946;6.954;2023-04-24T03:10:18;4.90;;;4.50;;
5129;SDS011;2583;50.946;6.954;2023-04-24T03:12:45;5.60;;;5.10;;
5129;SDS011;2583;50.946;6.954;2023-04-24T03:15:12;5.93;;;5.47;;
5129;SDS011;2583;50.946;6.954;2023-04-24T03:17:39;5.90;;;5.40;;
5129;SDS011;2583;50.946;6.954;2023-04-24T03:20:06;5.67;;;5.20;;
5129;SDS011;2583;50.946;6.954;2023-04-24T03:22:34;5.57;;;5.10;;
5129;SDS011;2583;50.946;6.954;2023-04-24T03:25:01;5.57;;;5.17;;
5129;SDS011;2583;50.946;6.954;2023-04-24T03:27:28;6.20;;;5.70;;
5129;SDS011;2583;50.946;6.954;2023-04-24T03:29:55;5.77;;;5.37;;
5129;SDS011;2583;50.946;6.954;2023-04-24T03:32:22;6.17;;;5.60;;
5129;SDS011;2583;50.946;6.954;2023-04-24T03:34:49;5.67;;;5.23;;
5129;SDS011;2583;50.946;6.954;2023-04-24T03:37:16;5.90;;;5.23;;
5129;SDS011;2583;50.946;6.954;2023-04-24T03:39:43;5.93;;;5.47;;
5129;SDS011;2583;50.946;6.954;2023-04-24T03:42:10;6.40;;;5.47;;
5129;SDS011;2583;50.946;6.954;2023-04-24T03:44:37;5.77;;;5.30;;
5129;SDS011;2583;50.946;6.954;2023-04-24T03:47:04;6.53;;;5.70;;
5129;SDS011;2583;50.946;6.954;2023-04-24T03:49:31;7.30;;;5.00;;
5129;SDS011;2583;50.946;6.954;2023-04-24T03:51:57;6.40;;;5.80;;
5129;SDS011;2583;50.946;6.954;2023-04-24T03:54:24;5.73;;;5.07;;
5129;SDS011;2583;50.946;6.954;2023-04-24T03:56:51;6.70;;;6.20;;
5129;SDS011;2583;50.946;6.954;2023-04-24T03:59:18;5.60;;;5.10;;
5129;SDS011;2583;50.946;6.954;2023-04-24T04:01:45;5.30;;;4.90;;
5129;SDS011;2583;50.946;6.954;2023-04-24T04:04:12;5.57;;;5.07;;
5129;SDS011;2583;50.946;6.954;2023-04-24T04:06:39;5.97;;;5.47;;
5129;SDS011;2583;50.946;6.954;2023-04-24T04:09:06;5.60;;;5.17;;
5129;SDS011;2583;50.946;6.954;2023-04-24T04:11:33;4.90;;;4.50;;
5129;SDS011;2583;50.946;6.954;2023-04-24T04:14:01;6.13;;;5.63;;
5129;SDS011;2583;50.946;6.954;2023-04-24T04:16:29;6.03;;;4.67;;
5129;SDS011;2583;50.946;6.954;2023-04-24T04:18:56;5.60;;;5.20;;
5129;SDS011;2583;50.946;6.954;2023-04-24T04:21:23;5.20;;;4.80;;
5129;SDS011;2583;50.946;6.954;2023-04-24T04:23:49;8.47;;;5.70;;
5129;SDS011;2583;50.946;6.954;2023-04-24T04:26:16;5.63;;;5.23;;
5129;SDS011;2583;50.946;6.954;2023-04-24T04:28:45;6.93;;;5.70;;
5129;SDS011;2583;50.946;6.954;2023-04-24T04:31:13;6.07;;;5.47;;
5129;SDS011;2583;50.946;6.954;2023-04-24T04:33:40;6.20;;;5.43;;
5129;SDS011;2583;50.946;6.954;2023-04-24T04:36:07;10.30;;;5.03;;
5129;SDS011;2583;50.946;6.954;2023-04-24T04:38:34;6.03;;;5.53;;
5129;SDS011;2583;50.946;6.954;2023-04-24T04:41:03;9.13;;;5.60;;
5129;SDS011;2583;50.946;6.954;2023-04-24T04:43:30;5.90;;;5.40;;
5129;SDS011;2583;50.946;6.954;2023-04-24T04:45:57;5.47;;;5.03;;
5129;SDS011;2583;50.946;6.954;2023-04-24T04:48:24;5.57;;;5.03;;
5129;SDS011;2583;50.946;6.954;2023-04-24T04:50:51;5.33;;;5.03;;
5129;SDS011;2583;50.946;6.954;2023-04-24T04:53:18;7.50;;;4.70;;
5129;SDS011;2583;50.946;6.954;2023-04-24T04:55:44;5.07;;;4.53;;
5129;SDS011;2583;50.946;6.954;2023-04-24T04:58:12;5.47;;;4.97;;
5129;SDS011;2583;50.946;6.954;2023-04-24T05:00:39;6.27;;;5.77;;
5129;SDS011;2583;50.946;6.954;2023-04-24T05:03:06;10.17;;;5.10;;
5129;SDS011;2583;50.946;6.954;2023-04-24T05:05:46;5.80;;;4.90;;
5129;SDS011;2583;50.946;6.954;2023-04-24T05:08:13;4.70;;;4.33;;
5129;SDS011;2583;50.946;6.954;2023-04-24T05:10:43;5.37;;;4.97;;
5129;SDS011;2583;50.946;6.954;2023-04-24T05:13:10;5.93;;;5.40;;
5129;SDS011;2583;50.946;6.954;2023-04-24T05:15:39;5.93;;;5.43;;
5129;SDS011;2583;50.946;6.954;2023-04-24T05:18:06;5.97;;;5.50;;
5129;SDS011;2583;50.946;6.954;2023-04-24T05:20:32;5.03;;;4.13;;
5129;SDS011;2583;50.946;6.954;2023-04-24T05:22:59;5.60;;;5.20;;
5129;SDS011;2583;50.946;6.954;2023-04-24T05:25:26;8.33;;;4.67;;
5129;SDS011;2583;50.946;6.954;2023-04-24T05:27:53;5.70;;;5.27;;
5129;SDS011;2583;50.946;6.954;2023-04-24T05:30:20;5.03;;;4.63;;
5129;SDS011;2583;50.946;6.954;2023-04-24T05:32:47;5.07;;;4.63;;
5129;SDS011;2583;50.946;6.954;2023-04-24T05:35:14;5.60;;;5.20;;
5129;SDS011;2583;50.946;6.954;2023-04-24T05:37:41;5.67;;;5.13;;
5129;SDS011;2583;50.946;6.954;2023-04-24T05:40:08;5.20;;;4.70;;
5129;SDS011;2583;50.946;6.954;2023-04-24T05:42:35;5.10;;;4.60;;
5129;SDS011;2583;50.946;6.954;2023-04-24T05:45:02;5.00;;;4.60;;
5129;SDS011;2583;50.946;6.954;2023-04-24T05:47:29;10.93;;;5.00;;
5129;SDS011;2583;50.946;6.954;2023-04-24T05:49:56;6.20;;;5.43;;
5129;SDS011;2583;50.946;6.954;2023-04-24T05:52:23;6.47;;;5.80;;
5129;SDS011;2583;50.946;6.954;2023-04-24T05:54:50;5.90;;;4.30;;
5129;SDS011;2583;50.946;6.954;2023-04-24T05:57:17;5.83;;;5.37;;
5129;SDS011;2583;50.946;6.954;2023-04-24T05:59:43;11.43;;;6.00;;
5129;SDS011;2583;50.946;6.954;2023-04-24T06:02:10;5.80;;;5.20;;
5129;SDS011;2583;50.946;6.954;2023-04-24T06:04:37;5.73;;;4.90;;
5129;SDS011;2583;50.946;6.954;2023-04-24T06:07:04;5.47;;;4.57;;
5129;SDS011;2583;50.946;6.954;2023-04-24T06:09:32;5.67;;;5.27;;
5129;SDS011;2583;50.946;6.954;2023-04-24T06:11:59;8.10;;;5.27;;
5129;SDS011;2583;50.946;6.954;2023-04-24T06:14:26;4.77;;;4.37;;
5129;SDS011;2583;50.946;6.954;2023-04-24T06:16:52;6.73;;;4.80;;
5129;SDS011;2583;50.946;6.954;2023-04-24T06:19:20;5.17;;;3.67;;
5129;SDS011;2583;50.946;6.954;2023-04-24T06:21:46;4.77;;;4.40;;
5129;SDS011;2583;50.946;6.954;2023-04-24T06:24:14;4.50;;;4.20;;
5129;SDS011;2583;50.946;6.954;2023-04-24T06:26:42;5.37;;;4.90;;
5129;SDS011;2583;50.946;6.954;2023-04-24T06:29:08;4.33;;;3.63;;
5129;SDS011;2583;50.946;6.954;2023-04-24T06:31:35;8.63;;;4.17;;
5129;SDS011;2583;50.946;6.954;2023-04-24T06:34:03;4.23;;;2.80;;
5129;SDS011;2583;50.946;6.954;2023-04-24T06:36:30;3.53;;;3.23;;
5129;SDS011;2583;50.946;6.954;2023-04-24T06:38:57;2.50;;;2.30;;
5129;SDS011;2583;50.946;6.954;2023-04-24T06:41:24;2.57;;;2.37;;
5129;SDS011;2583;50.946;6.954;2023-04-24T06:43:51;2.27;;;1.80;;
5129;SDS011;2583;50.946;6.954;2023-04-24T06:46:18;4.53;;;2.00;;
5129;SDS011;2583;50.946;6.954;2023-04-24T06:48:45;3.00;;;2.20;;
5129;SDS011;2583;50.946;6.954;2023-04-24T06:51:11;2.60;;;1.80;;
5129;SDS011;2583;50.946;6.954;2023-04-24T06:53:38;1.50;;;1.40;;
5129;SDS011;2583;50.946;6.954;2023-04-24T06:56:05;2.07;;;1.50;;
5129;SDS011;2583;50.946;6.954;2023-04-24T06:58:32;4.40;;;1.50;;
5129;SDS011;2583;50.946;6.954;2023-04-24T07:00:59;4.20;;;2.27;;
5129;SDS011;2583;50.946;6.954;2023-04-24T07:03:25;2.73;;;1.60;;
5129;SDS011;2583;50.946;6.954;2023-04-24T07:05:52;1.50;;;1.40;;
5129;SDS011;2583;50.946;6.954;2023-04-24T07:08:21;1.70;;;1.60;;
5129;SDS011;2583;50.946;6.954;2023-04-24T07:10:48;1.73;;;1.63;;
5129;SDS011;2583;50.946;6.954;2023-04-24T07:13:16;3.50;;;1.80;;
5129;SDS011;2583;50.946;6.954;2023-04-24T07:15:43;1.27;;;1.17;;
5129;SDS011;2583;50.946;6.954;2023-04-24T07:18:10;1.73;;;1.43;;
5129;SDS011;2583;50.946;6.954;2023-04-24T07:20:37;1.60;;;1.50;;
5129;SDS011;2583;50.946;6.954;2023-04-24T07:23:04;2.10;;;1.20;;
5129;SDS011;2583;50.946;6.954;2023-04-24T07:25:31;2.50;;;1.57;;
5129;SDS011;2583;50.946;6.954;2023-04-24T07:27:58;2.30;;;1.70;;
5129;SDS011;2583;50.946;6.954;2023-04-24T07:30:25;2.27;;;1.70;;
5129;SDS011;2583;50.946;6.954;2023-04-24T07:32:52;4.17;;;1.37;;
5129;SDS011;2583;50.946;6.954;2023-04-24T07:35:18;2.27;;;1.73;;
5129;SDS011;2583;50.946;6.954;2023-04-24T07:37:46;4.17;;;1.83;;
5129;SDS011;2583;50.946;6.954;2023-04-24T07:40:13;1.73;;;1.10;;
5129;SDS011;2583;50.946;6.954;2023-04-24T07:42:40;1.97;;;1.77;;
5129;SDS011;2583;50.946;6.954;2023-04-24T07:45:07;1.50;;;1.17;;
5129;SDS011;2583;50.946;6.954;2023-04-24T07:47:33;7.87;;;1.57;;
5129;SDS011;2583;50.946;6.954;2023-04-24T07:50:01;1.57;;;1.00;;
5129;SDS011;2583;50.946;6.954;2023-04-24T07:52:28;0.90;;;0.60;;
5129;SDS011;2583;50.946;6.954;2023-04-24T07:54:55;2.90;;;0.97;;
5129;SDS011;2583;50.946;6.954;2023-04-24T07:57:24;0.97;;;0.73;;
5129;SDS011;2583;50.946;6.954;2023-04-24T07:59:51;1.57;;;0.80;;
5129;SDS011;2583;50.946;6.954;2023-04-24T08:02:18;2.90;;;1.10;;
5129;SDS011;2583;50.946;6.954;2023-04-24T08:04:45;1.20;;;0.80;;
5129;SDS011;2583;50.946;6.954;2023-04-24T08:07:12;2.03;;;0.80;;
5129;SDS011;2583;50.946;6.954;2023-04-24T08:09:39;3.40;;;1.23;;
5129;SDS011;2583;50.946;6.954;2023-04-24T08:12:06;1.30;;;0.90;;
5129;SDS011;2583;50.946;6.954;2023-04-24T08:14:32;5.70;;;1.37;;
5129;SDS011;2583;50.946;6.954;2023-04-24T08:16:59;2.20;;;1.37;;
5129;SDS011;2583;50.946;6.954;2023-04-24T08:19:27;1.70;;;1.20;;
5129;SDS011;2583;50.946;6.954;2023-04-24T08:21:54;4.13;;;0.90;;
5129;SDS011;2583;50.946;6.954;2023-04-24T08:24:21;1.80;;;1.10;;
5129;SDS011;2583;50.946;6.954;2023-04-24T08:26:48;3.87;;;2.03;;
5129;SDS011;2583;50.946;6.954;2023-04-24T08:29:17;1.83;;;1.27;;
5129;SDS011;2583;50.946;6.954;2023-04-24T08:31:44;1.83;;;1.10;;
5129;SDS011;2583;50.946;6.954;2023-04-24T08:34:11;1.70;;;1.10;;
5129;SDS011;2583;50.946;6.954;2023-04-24T08:36:37;2.40;;;1.27;;
5129;SDS011;2583;50.946;6.954;2023-04-24T08:39:12;2.90;;;1.47;;
5129;SDS011;2583;50.946;6.954;2023-04-24T08:41:41;6.73;;;3.03;;
5129;SDS011;2583;50.946;6.954;2023-04-24T08:44:12;5.30;;;1.90;;
5129;SDS011;2583;50.946;6.954;2023-04-24T08:46:40;2.47;;;1.27;;
5129;SDS011;2583;50.946;6.954;2023-04-24T08:49:08;1.83;;;1.40;;
5129;SDS011;2583;50.946;6.954;2023-04-24T08:51:36;1.53;;;1.37;;
5129;SDS011;2583;50.946;6.954;2023-04-24T08:54:04;1.80;;;1.53;;
5129;SDS011;2583;50.946;6.954;2023-04-24T08:56:31;2.03;;;1.37;;
5129;SDS011;2583;50.946;6.954;2023-04-24T08:58:59;2.80;;;1.90;;
5129;SDS011;2583;50.946;6.954;2023-04-24T09:01:27;2.63;;;2.30;;
5129;SDS011;2583;50.946;6.954;2023-04-24T09:03:55;2.80;;;2.60;;
5129;SDS011;2583;50.946;6.954;2023-04-24T09:06:22;3.57;;;3.27;;
5129;SDS011;2583;50.946;6.954;2023-04-24T09:08:50;4.53;;;4.13;;
5129;SDS011;2583;50.946;6.954;2023-04-24T09:11:19;7.93;;;4.40;;
5129;SDS011;2583;50.946;6.954;2023-04-24T09:13:46;7.10;;;5.43;;
5129;SDS011;2583;50.946;6.954;2023-04-24T09:16:14;5.93;;;4.30;;
5129;SDS011;2583;50.946;6.954;2023-04-24T09:18:41;4.93;;;4.43;;
5129;SDS011;2583;50.946;6.954;2023-04-24T09:21:08;9.97;;;4.67;;
5129;SDS011;2583;50.946;6.954;2023-04-24T09:23:35;4.40;;;4.10;;
5129;SDS011;2583;50.946;6.954;2023-04-24T09:26:02;5.13;;;4.40;;
5129;SDS011;2583;50.946;6.954;2023-04-24T09:28:36;5.80;;;4.60;;
5129;SDS011;2583;50.946;6.954;2023-04-24T09:31:15;6.60;;;6.00;;
5129;SDS011;2583;50.946;6.954;2023-04-24T09:34:00;5.80;;;4.80;;
5129;SDS011;2583;50.946;6.954;2023-04-24T09:36:35;7.60;;;5.90;;
5129;SDS011;2583;50.946;6.954;2023-04-24T09:39:04;7.07;;;6.37;;
5129;SDS011;2583;50.946;6.954;2023-04-24T09:41:34;6.87;;;6.37;;
5129;SDS011;2583;50.946;6.954;2023-04-24T09:44:12;6.23;;;5.70;;
5129;SDS011;2583;50.946;6.954;2023-04-24T09:46:41;6.80;;;6.40;;
5129;SDS011;2583;50.946;6.954;2023-04-24T09:49:10;6.70;;;6.20;;
5129;SDS011;2583;50.946;6.954;2023-04-24T09:51:42;9.83;;;7.10;;
5129;SDS011;2583;50.946;6.954;2023-04-24T09:54:19;8.87;;;8.10;;
5129;SDS011;2583;50.946;6.954;2023-04-24T09:56:48;7.90;;;7.20;;
5129;SDS011;2583;50.946;6.954;2023-04-24T09:59:17;13.60;;;8.03;;
5129;SDS011;2583;50.946;6.954;2023-04-24T10:01:45;18.30;;;10.70;;
5129;SDS011;2583;50.946;6.954;2023-04-24T10:04:19;22.43;;;12.63;;
5129;SDS011;2583;50.946;6.954;2023-04-24T10:06:54;9.13;;;8.23;;
5129;SDS011;2583;50.946;6.954;2023-04-24T10:09:24;9.60;;;7.37;;
5129;SDS011;2583;50.946;6.954;2023-04-24T10:11:53;10.00;;;6.43;;
5129;SDS011;2583;50.946;6.954;2023-04-24T10:14:21;8.10;;;6.77;;
5129;SDS011;2583;50.946;6.954;2023-04-24T10:16:50;8.33;;;5.90;;
5129;SDS011;2583;50.946;6.954;2023-04-24T10:19:19;41.37;;;17.90;;
5129;SDS011;2583;50.946;6.954;2023-04-24T10:21:46;9.00;;;6.20;;
5129;SDS011;2583;50.946;6.954;2023-04-24T10:24:14;14.20;;;8.80;;
5129;SDS011;2583;50.946;6.954;2023-04-24T10:26:42;40.00;;;15.40;;
5129;SDS011;2583;50.946;6.954;2023-04-24T10:29:11;7.50;;;5.50;;
5129;SDS011;2583;50.946;6.954;2023-04-24T10:31:39;15.80;;;8.37;;
5129;SDS011;2583;50.946;6.954;2023-04-24T10:34:07;9.63;;;6.03;;
5129;SDS011;2583;50.946;6.954;2023-04-24T10:36:36;16.67;;;7.50;;
5129;SDS011;2583;50.946;6.954;2023-04-24T10:39:08;12.20;;;6.77;;
5129;SDS011;2583;50.946;6.954;2023-04-24T10:41:38;9.17;;;4.50;;
5129;SDS011;2583;50.946;6.954;2023-04-24T10:46:36;7.80;;;3.53;;
5129;SDS011;2583;50.946;6.954;2023-04-24T10:49:04;55.67;;;19.70;;
5129;SDS011;2583;50.946;6.954;2023-04-24T10:51:45;52.27;;;19.90;;
5129;SDS011;2583;50.946;6.954;2023-04-24T10:54:21;9.87;;;4.87;;
5129;SDS011;2583;50.946;6.954;2023-04-24T10:56:50;7.23;;;4.90;;
5129;SDS011;2583;50.946;6.954;2023-04-24T10:59:24;15.10;;;7.93;;
5129;SDS011;2583;50.946;6.954;2023-04-24T11:01:52;8.30;;;4.17;;
5129;SDS011;2583;50.946;6.954;2023-04-24T11:04:31;3.50;;;2.80;;
5129;SDS011;2583;50.946;6.954;2023-04-24T11:06:59;6.37;;;4.00;;
5129;SDS011;2583;50.946;6.954;2023-04-24T11:09:27;4.33;;;3.30;;
5129;SDS011;2583;50.946;6.954;2023-04-24T11:12:07;5.20;;;3.93;;
5129;SDS011;2583;50.946;6.954;2023-04-24T11:17:35;6.70;;;3.40;;
5129;SDS011;2583;50.946;6.954;2023-04-24T11:20:05;8.67;;;3.70;;
5129;SDS011;2583;50.946;6.954;2023-04-24T11:22:53;3.90;;;3.53;;
5129;SDS011;2583;50.946;6.954;2023-04-24T11:25:21;5.30;;;3.53;;
5129;SDS011;2583;50.946;6.954;2023-04-24T11:27:49;5.83;;;4.40;;
5129;SDS011;2583;50.946;6.954;2023-04-24T11:30:17;8.00;;;4.67;;
5129;SDS011;2583;50.946;6.954;2023-04-24T11:32:50;7.90;;;4.20;;
5129;SDS011;2583;50.946;6.954;2023-04-24T11:37:46;34.87;;;13.50;;
5129;SDS011;2583;50.946;6.954;2023-04-24T11:40:20;9.80;;;5.97;;
5129;SDS011;2583;50.946;6.954;2023-04-24T11:42:52;7.40;;;4.10;;
5129;SDS011;2583;50.946;6.954;2023-04-24T11:45:24;6.47;;;4.17;;
5129;SDS011;2583;50.946;6.954;2023-04-24T11:47:52;8.73;;;5.87;;
5129;SDS011;2583;50.946;6.954;2023-04-24T11:50:21;8.70;;;4.80;;
5129;SDS011;2583;50.946;6.954;2023-04-24T11:52:54;24.10;;;8.63;;
5129;SDS011;2583;50.946;6.954;2023-04-24T11:55:23;8.43;;;5.83;;
5129;SDS011;2583;50.946;6.954;2023-04-24T11:57:55;5.87;;;4.43;;
5129;SDS011;2583;50.946;6.954;2023-04-24T12:00:24;6.37;;;5.10;;
5129;SDS011;2583;50.946;6.954;2023-04-24T12:03:03;6.37;;;4.33;;
5129;SDS011;2583;50.946;6.954;2023-04-24T12:05:40;8.50;;;4.70;;
5129;SDS011;2583;50.946;6.954;2023-04-24T12:08:07;8.40;;;4.70;;
5129;SDS011;2583;50.946;6.954;2023-04-24T12:10:34;6.33;;;3.87;;
5129;SDS011;2583;50.946;6.954;2023-04-24T12:13:02;8.10;;;3.40;;
5129;SDS011;2583;50.946;6.954;2023-04-24T12:15:29;8.57;;;3.77;;
5129;SDS011;2583;50.946;6.954;2023-04-24T12:17:55;5.23;;;3.87;;
5129;SDS011;2583;50.946;6.954;2023-04-24T12:20:23;9.23;;;4.57;;
5129;SDS011;2583;50.946;6.954;2023-04-24T12:22:55;4.60;;;3.30;;
5129;SDS011;2583;50.946;6.954;2023-04-24T12:25:27;3.90;;;3.33;;
5129;SDS011;2583;50.946;6.954;2023-04-24T12:28:08;7.90;;;4.40;;
5129;SDS011;2583;50.946;6.954;2023-04-24T12:30:41;5.70;;;4.30;;
5129;SDS011;2583;50.946;6.954;2023-04-24T12:33:11;13.73;;;7.13;;
5129;SDS011;2583;50.946;6.954;2023-04-24T12:35:39;11.80;;;5.57;;
5129;SDS011;2583;50.946;6.954;2023-04-24T12:40:34;26.13;;;11.17;;
5129;SDS011;2583;50.946;6.954;2023-04-24T12:43:01;14.77;;;5.13;;
5129;SDS011;2583;50.946;6.954;2023-04-24T12:45:28;10.53;;;5.33;;
5129;SDS011;2583;50.946;6.954;2023-04-24T12:47:55;9.30;;;6.23;;
5129;SDS011;2583;50.946;6.954;2023-04-24T12:50:22;12.07;;;5.47;;
5129;SDS011;2583;50.946;6.954;2023-04-24T12:52:49;14.20;;;6.30;;
5129;SDS011;2583;50.946;6.954;2023-04-24T12:55:16;15.90;;;7.60;;
5129;SDS011;2583;50.946;6.954;2023-04-24T12:57:42;7.27;;;4.10;;
5129;SDS011;2583;50.946;6.954;2023-04-24T13:00:09;13.60;;;7.50;;
5129;SDS011;2583;50.946;6.954;2023-04-24T13:02:36;10.70;;;5.07;;
5129;SDS011;2583;50.946;6.954;2023-04-24T13:05:04;60.50;;;21.33;;
5129;SDS011;2583;50.946;6.954;2023-04-24T13:07:32;10.37;;;5.30;;
5129;SDS011;2583;50.946;6.954;2023-04-24T13:10:00;24.37;;;9.23;;
5129;SDS011;2583;50.946;6.954;2023-04-24T13:12:26;26.40;;;9.67;;
5129;SDS011;2583;50.946;6.954;2023-04-24T13:14:53;10.40;;;4.80;;
5129;SDS011;2583;50.946;6.954;2023-04-24T13:17:21;7.80;;;3.67;;
5129;SDS011;2583;50.946;6.954;2023-04-24T13:19:48;12.37;;;5.60;;
5129;SDS011;2583;50.946;6.954;2023-04-24T13:22:16;8.33;;;3.70;;
5129;SDS011;2583;50.946;6.954;2023-04-24T13:24:44;5.30;;;4.20;;
5129;SDS011;2583;50.946;6.954;2023-04-24T13:27:11;9.80;;;4.13;;
5129;SDS011;2583;50.946;6.954;2023-04-24T13:29:38;6.37;;;3.40;;
5129;SDS011;2583;50.946;6.954;2023-04-24T13:32:05;4.70;;;4.07;;
5129;SDS011;2583;50.946;6.954;2023-04-24T13:34:32;6.50;;;3.80;;
5129;SDS011;2583;50.946;6.954;2023-04-24T13:37:00;5.60;;;4.53;;
5129;SDS011;2583;50.946;6.954;2023-04-24T13:39:30;3.83;;;3.53;;
5129;SDS011;2583;50.946;6.954;2023-04-24T13:41:57;7.47;;;3.53;;
5129;SDS011;2583;50.946;6.954;2023-04-24T13:44:24;3.70;;;3.40;;
5129;SDS011;2583;50.946;6.954;2023-04-24T13:46:53;5.20;;;4.13;;
5129;SDS011;2583;50.946;6.954;2023-04-24T13:49:23;5.53;;;3.40;;
5129;SDS011;2583;50.946;6.954;2023-04-24T13:51:51;7.00;;;3.20;;
5129;SDS011;2583;50.946;6.954;2023-04-24T13:54:19;4.23;;;3.70;;
5129;SDS011;2583;50.946;6.954;2023-04-24T13:56:46;8.50;;;3.90;;
5129;SDS011;2583;50.946;6.954;2023-04-24T13:59:13;3.80;;;3.47;;
5129;SDS011;2583;50.946;6.954;2023-04-24T14:01:40;7.83;;;3.83;;
5129;SDS011;2583;50.946;6.954;2023-04-24T14:04:07;4.20;;;3.23;;
5129;SDS011;2583;50.946;6.954;2023-04-24T14:06:34;6.77;;;3.57;;
5129;SDS011;2583;50.946;6.954;2023-04-24T14:09:01;4.13;;;3.23;;
5129;SDS011;2583;50.946;6.954;2023-04-24T14:11:28;4.47;;;3.07;;
5129;SDS011;2583;50.946;6.954;2023-04-24T14:13:55;3.77;;;2.97;;
5129;SDS011;2583;50.946;6.954;2023-04-24T14:16:22;8.63;;;3.20;;
5129;SDS011;2583;50.946;6.954;2023-04-24T14:18:49;5.70;;;3.60;;
5129;SDS011;2583;50.946;6.954;2023-04-24T14:21:16;8.90;;;3.63;;
5129;SDS011;2583;50.946;6.954;2023-04-24T14:23:43;4.77;;;3.60;;
5129;SDS011;2583;50.946;6.954;2023-04-24T14:26:11;3.70;;;3.37;;
5129;SDS011;2583;50.946;6.954;2023-04-24T14:28:37;6.03;;;4.40;;
5129;SDS011;2583;50.946;6.954;2023-04-24T14:31:04;9.47;;;3.57;;
5129;SDS011;2583;50.946;6.954;2023-04-24T14:33:31;9.53;;;3.70;;
5129;SDS011;2583;50.946;6.954;2023-04-24T14:35:58;5.40;;;3.20;;
5129;SDS011;2583;50.946;6.954;2023-04-24T14:38:25;3.50;;;3.20;;
5129;SDS011;2583;50.946;6.954;2023-04-24T14:40:52;5.40;;;3.00;;
5129;SDS011;2583;50.946;6.954;2023-04-24T14:43:22;6.00;;;3.60;;
5129;SDS011;2583;50.946;6.954;2023-04-24T14:45:49;6.10;;;3.83;;
5129;SDS011;2583;50.946;6.954;2023-04-24T14:48:16;4.70;;;3.33;;
5129;SDS011;2583;50.946;6.954;2023-04-24T14:50:43;8.17;;;3.00;;
5129;SDS011;2583;50.946;6.954;2023-04-24T14:53:11;4.77;;;3.70;;
5129;SDS011;2583;50.946;6.954;2023-04-24T14:55:38;5.60;;;3.47;;
5129;SDS011;2583;50.946;6.954;2023-04-24T14:58:05;4.37;;;3.70;;
5129;SDS011;2583;50.946;6.954;2023-04-24T15:00:31;5.23;;;3.30;;
5129;SDS011;2583;50.946;6.954;2023-04-24T15:02:58;4.30;;;3.87;;
5129;SDS011;2583;50.946;6.954;2023-04-24T15:05:26;4.50;;;3.63;;
5129;SDS011;2583;50.946;6.954;2023-04-24T15:07:53;3.80;;;3.30;;
5129;SDS011;2583;50.946;6.954;2023-04-24T15:10:20;4.90;;;3.53;;
5129;SDS011;2583;50.946;6.954;2023-04-24T15:12:49;6.57;;;3.73;;
5129;SDS011;2583;50.946;6.954;2023-04-24T15:15:16;3.97;;;2.97;;
5129;SDS011;2583;50.946;6.954;2023-04-24T15:17:43;7.20;;;3.03;;
5129;SDS011;2583;50.946;6.954;2023-04-24T15:20:10;6.83;;;2.50;;
5129;SDS011;2583;50.946;6.954;2023-04-24T15:22:37;7.03;;;2.70;;
5129;SDS011;2583;50.946;6.954;2023-04-24T15:25:03;4.37;;;2.90;;
5129;SDS011;2583;50.946;6.954;2023-04-24T15:27:44;3.00;;;2.23;;
5129;SDS011;2583;50.946;6.954;2023-04-24T15:30:11;3.07;;;2.77;;